createdAt,value
2023-05-10T00:00:50.587Z,8.20
2023-05-10T00:03:17.914Z,7.60
2023-05-10T00:05:44.970Z,6.80
2023-05-10T00:08:12.076Z,7.00
2023-05-10T00:10:39.477Z,5.50
2023-05-10T00:13:06.782Z,5.90
2023-05-10T00:15:34.098Z,6.00
2023-05-10T00:18:01.505Z,5.90
2023-05-10T00:20:28.802Z,6.10
2023-05-10T00:22:55.909Z,6.10
2023-05-10T00:25:22.997Z,5.60
2023-05-10T00:27:50.878Z,5.80
2023-05-10T00:30:18.253Z,6.10
2023-05-10T00:32:46.025Z,4.60
2023-05-10T00:35:13.776Z,4.70
2023-05-10T00:37:41.747Z,4.60
2023-05-10T00:40:08.958Z,5.10
2023-05-10T00:42:36.559Z,5.50
2023-05-10T00:45:03.886Z,5.20
2023-05-10T00:47:32.514Z,5.30
2023-05-10T00:50:01.737Z,5.20
2023-05-10T00:52:29.576Z,5.40
2023-05-10T00:54:56.564Z,4.40
2023-05-10T00:57:24.219Z,4.00
2023-05-10T00:59:51.556Z,4.80
2023-05-10T01:02:19.069Z,5.00
2023-05-10T01:04:46.515Z,5.00
2023-05-10T01:07:13.755Z,5.10
2023-05-10T01:09:41.137Z,5.30
2023-05-10T01:12:08.497Z,5.20
2023-05-10T01:14:37.362Z,5.90
2023-05-10T01:17:04.940Z,4.10
2023-05-10T01:19:32.190Z,4.50
2023-05-10T01:22:16.224Z,4.50
2023-05-10T01:24:58.113Z,4.60
2023-05-10T01:27:40.875Z,5.50
2023-05-10T01:30:27.252Z,5.00
2023-05-10T01:33:19.687Z,5.20
2023-05-10T01:35:59.546Z,5.10
2023-05-10T01:38:51.395Z,4.40
2023-05-10T01:41:39.301Z,3.90
2023-05-10T01:44:11.326Z,4.80
2023-05-10T01:46:39.449Z,4.80
2023-05-10T01:49:10.383Z,4.70
2023-05-10T01:51:44.419Z,5.20
2023-05-10T01:54:11.897Z,5.70
2023-05-10T01:56:39.142Z,5.40
2023-05-10T01:59:08.466Z,4.00
2023-05-10T02:01:36.007Z,4.10
2023-05-10T02:04:02.995Z,4.40
2023-05-10T02:06:30.551Z,4.70
2023-05-10T02:08:57.601Z,4.80
2023-05-10T02:11:24.808Z,5.00
2023-05-10T02:13:52.866Z,4.70
2023-05-10T02:16:20.063Z,5.50
2023-05-10T02:18:48.122Z,3.80
2023-05-10T02:21:15.546Z,3.80
2023-05-10T02:23:42.788Z,4.20
2023-05-10T02:26:09.951Z,5.00
2023-05-10T02:28:37.037Z,4.60
2023-05-10T02:31:04.527Z,5.00
2023-05-10T02:33:31.740Z,4.80
2023-05-10T02:35:58.818Z,5.20
2023-05-10T02:38:26.375Z,3.80
2023-05-10T02:40:53.731Z,3.70
2023-05-10T02:43:20.722Z,4.60
2023-05-10T02:45:48.457Z,4.60
2023-05-10T02:48:15.701Z,4.70
2023-05-10T02:50:45.044Z,4.80
2023-05-10T02:53:16.486Z,5.30
2023-05-10T02:55:43.983Z,5.30
2023-05-10T02:58:11.198Z,3.80
2023-05-10T03:00:38.581Z,3.80
2023-05-10T03:03:05.744Z,4.70
2023-05-10T03:05:34.185Z,4.20
2023-05-10T03:08:05.115Z,5.00
2023-05-10T03:10:32.374Z,5.00
2023-05-10T03:13:22.455Z,4.70
2023-05-10T03:15:49.909Z,5.50
2023-05-10T03:18:19.314Z,4.00
2023-05-10T03:20:51.969Z,4.40
2023-05-10T03:23:19.052Z,4.60
2023-05-10T03:25:47.208Z,4.10
2023-05-10T03:28:14.615Z,4.30
2023-05-10T03:30:42.614Z,5.00
2023-05-10T03:33:10.613Z,5.00
2023-05-10T03:35:40.468Z,4.80
2023-05-10T03:38:07.495Z,5.60
2023-05-10T03:40:34.589Z,4.10
2023-05-10T03:43:01.733Z,3.90
2023-05-10T03:45:29.077Z,4.70
2023-05-10T03:47:56.886Z,5.20
2023-05-10T03:50:25.371Z,5.20
2023-05-10T03:52:54.093Z,5.10
2023-05-10T03:55:21.874Z,6.40
2023-05-10T03:57:50.670Z,7.30
2023-05-10T04:00:18.299Z,8.40
2023-05-10T04:02:48.314Z,5.90
2023-05-10T04:05:19.224Z,8.70
2023-05-10T04:07:47.401Z,8.20
2023-05-10T04:10:14.772Z,9.50
2023-05-10T04:12:42.978Z,8.40
2023-05-10T04:15:10.783Z,7.40
2023-05-10T04:17:38.713Z,6.50
2023-05-10T04:20:06.791Z,6.00
2023-05-10T04:22:33.790Z,6.40
2023-05-10T04:25:00.754Z,6.50
2023-05-10T04:27:28.225Z,7.40
2023-05-10T04:29:55.409Z,9.60
2023-05-10T04:32:22.373Z,13.90
2023-05-10T04:34:49.416Z,9.40
2023-05-10T04:37:16.452Z,9.60
2023-05-10T04:39:43.528Z,9.00
2023-05-10T04:42:10.651Z,7.40
2023-05-10T04:44:37.697Z,7.40
2023-05-10T04:47:04.792Z,6.80
2023-05-10T04:49:32.100Z,6.60
2023-05-10T04:51:59.109Z,5.40
2023-05-10T04:54:26.063Z,5.90
2023-05-10T04:56:53.029Z,6.00
2023-05-10T04:59:20.162Z,6.30
2023-05-10T05:01:47.034Z,6.70
2023-05-10T05:04:14.025Z,6.30
2023-05-10T05:06:41.261Z,5.80
2023-05-10T05:09:08.278Z,5.70
2023-05-10T05:11:35.245Z,5.80
2023-05-10T05:14:03.134Z,5.70
2023-05-10T05:16:32.100Z,5.40
2023-05-10T05:18:59.037Z,5.90
2023-05-10T05:21:27.935Z,5.30
2023-05-10T05:23:54.896Z,5.80
2023-05-10T13:56:55.882Z,2.40
2023-05-10T13:59:23.577Z,2.30
2023-05-10T14:01:50.558Z,2.50
2023-05-10T14:04:17.840Z,3.00
2023-05-10T14:06:44.734Z,7.10
2023-05-10T14:09:11.892Z,5.80
2023-05-10T14:11:42.731Z,6.10
2023-05-10T14:16:37.040Z,4.00
2023-05-10T14:19:04.165Z,2.60
2023-05-10T14:21:31.824Z,3.30
2023-05-10T14:23:58.740Z,3.80
2023-05-10T14:26:26.125Z,2.80
2023-05-10T14:28:53.390Z,2.90
2023-05-10T14:31:24.378Z,2.50
2023-05-10T14:33:51.312Z,2.50
2023-05-10T14:36:18.688Z,2.50
2023-05-10T14:38:45.646Z,3.30
2023-05-10T14:41:15.552Z,3.60
2023-05-10T14:43:42.506Z,6.10
2023-05-10T14:46:09.902Z,6.60
2023-05-10T14:48:37.275Z,3.20
2023-05-10T14:51:04.762Z,11.70
2023-05-10T14:53:31.771Z,4.80
2023-05-10T14:55:58.924Z,3.30
2023-05-10T14:58:26.068Z,3.60
2023-05-10T15:00:54.069Z,2.60
2023-05-10T15:03:22.453Z,2.50
2023-05-10T15:05:49.859Z,3.60
2023-05-10T15:08:17.433Z,3.20
2023-05-10T15:10:44.540Z,2.60
2023-05-10T15:13:11.705Z,3.10
2023-05-10T15:15:38.831Z,4.40
2023-05-10T15:18:06.737Z,2.90
2023-05-10T15:20:33.755Z,4.60
2023-05-10T15:23:00.636Z,4.90
2023-05-10T15:25:28.865Z,2.50
2023-05-10T15:27:56.137Z,5.80
2023-05-10T15:30:23.247Z,4.00
2023-05-10T15:32:50.314Z,6.40
2023-05-10T15:35:18.223Z,4.80
2023-05-10T15:37:45.633Z,4.30
2023-05-10T15:40:12.783Z,10.10
2023-05-10T15:42:39.944Z,9.30
2023-05-10T15:45:07.519Z,6.30
2023-05-10T15:47:34.761Z,10.20
2023-05-10T15:50:01.809Z,9.50
2023-05-10T15:52:29.219Z,6.30
2023-05-10T15:54:56.530Z,9.30
2023-05-10T15:57:23.527Z,3.90
2023-05-10T15:59:50.914Z,15.60
2023-05-10T16:02:19.435Z,5.80
2023-05-10T16:04:46.515Z,13.60
2023-05-10T16:07:13.380Z,9.70
2023-05-10T16:09:40.384Z,5.70
2023-05-10T16:12:08.355Z,6.90
2023-05-10T16:14:35.547Z,11.80
2023-05-10T16:17:04.285Z,5.40
2023-05-10T16:19:31.789Z,23.90
2023-05-10T16:21:58.771Z,23.90
2023-05-10T16:24:26.542Z,14.80
2023-05-10T16:26:53.430Z,7.10
2023-05-10T16:29:20.346Z,3.00
2023-05-10T16:31:47.306Z,5.20
2023-05-10T16:34:14.264Z,3.20
2023-05-10T16:36:41.310Z,8.50
2023-05-10T16:39:09.846Z,4.70
2023-05-10T16:41:36.806Z,7.30
2023-05-10T16:44:04.029Z,8.30
2023-05-10T16:46:31.207Z,11.70
2023-05-10T16:48:59.854Z,9.50
2023-05-10T16:51:27.229Z,9.10
2023-05-10T16:53:55.218Z,5.70
2023-05-10T16:56:23.443Z,3.40
2023-05-10T16:58:50.421Z,8.90
2023-05-10T17:01:17.568Z,8.00
2023-05-10T17:03:44.700Z,8.00
2023-05-10T17:06:12.129Z,8.40
2023-05-10T17:08:39.593Z,24.50
2023-05-10T17:11:06.574Z,10.60
2023-05-10T17:13:33.805Z,15.30
2023-05-10T17:16:03.677Z,19.50
2023-05-10T17:18:31.031Z,23.50
2023-05-10T17:20:58.383Z,14.80
2023-05-10T17:23:25.731Z,7.60
2023-05-10T17:25:53.003Z,6.40
2023-05-10T17:28:20.476Z,12.90
2023-05-10T17:30:47.676Z,8.50
2023-05-10T17:33:14.621Z,13.20
2023-05-10T17:35:46.506Z,16.00
2023-05-10T17:38:13.819Z,7.80
2023-05-10T17:40:41.518Z,4.90
2023-05-10T17:43:08.793Z,6.60
2023-05-10T17:45:36.379Z,6.00
2023-05-10T17:48:04.279Z,6.30
2023-05-10T17:50:32.666Z,4.10
2023-05-10T17:52:59.538Z,3.60
2023-05-10T17:55:27.210Z,6.20
2023-05-10T17:57:58.616Z,9.80
2023-05-10T18:00:25.891Z,8.10
2023-05-10T18:02:52.868Z,9.90
2023-05-10T18:05:20.805Z,16.50
2023-05-10T18:07:48.414Z,28.00
2023-05-10T18:10:15.506Z,5.90
2023-05-10T18:12:42.999Z,5.90
2023-05-10T18:15:10.490Z,7.10
2023-05-10T18:17:37.910Z,13.50
2023-05-10T18:20:07.451Z,17.70
2023-05-10T18:22:34.510Z,18.10
2023-05-10T18:25:02.232Z,19.70
2023-05-10T18:27:29.966Z,20.20
2023-05-10T18:29:57.131Z,18.60
2023-05-10T18:32:24.580Z,17.30
2023-05-10T18:34:52.450Z,17.80
2023-05-10T18:37:21.060Z,18.30
2023-05-10T18:39:47.949Z,16.70
2023-05-10T18:42:15.471Z,18.10
2023-05-10T18:44:42.413Z,19.40
2023-05-10T18:47:09.375Z,18.00
2023-05-10T18:49:36.585Z,17.10
2023-05-10T18:52:03.999Z,43.80
2023-05-10T18:54:31.350Z,158.50
2023-05-10T18:56:59.039Z,285.30
2023-05-10T18:59:27.820Z,173.50
2023-05-10T19:01:56.999Z,203.40
2023-05-10T19:04:24.591Z,144.90
2023-05-10T19:06:51.589Z,107.20
2023-05-10T19:09:20.251Z,57.20
2023-05-10T19:11:47.207Z,54.20
2023-05-10T19:14:14.498Z,45.00
2023-05-10T19:16:42.750Z,46.60
2023-05-10T19:19:10.371Z,31.10
2023-05-10T19:21:39.823Z,26.60
2023-05-10T19:24:08.768Z,19.60
2023-05-10T19:26:37.231Z,21.50
2023-05-10T19:29:04.201Z,22.10
2023-05-10T19:31:33.472Z,25.10
2023-05-10T19:34:00.974Z,31.10
2023-05-10T19:36:28.613Z,26.80
2023-05-10T19:38:55.694Z,36.60
2023-05-10T19:41:22.869Z,37.90
2023-05-10T19:43:50.095Z,40.40
2023-05-10T19:46:19.289Z,36.90
2023-05-10T19:48:50.141Z,37.50
2023-05-10T19:51:17.209Z,50.40
2023-05-10T19:53:45.080Z,50.20
2023-05-10T19:56:12.961Z,49.80
2023-05-10T19:58:40.476Z,48.70
2023-05-10T20:01:08.118Z,76.20
2023-05-10T20:03:35.869Z,67.50
2023-05-10T20:06:03.090Z,51.90
2023-05-10T20:08:30.104Z,58.80
2023-05-10T20:11:02.627Z,43.80
2023-05-10T20:13:30.045Z,39.80
2023-05-10T20:15:58.191Z,46.60
2023-05-10T20:18:26.030Z,43.90
2023-05-10T20:20:59.195Z,41.60
2023-05-10T20:23:26.694Z,39.50
2023-05-10T20:25:54.989Z,40.50
2023-05-10T20:28:23.137Z,34.80
2023-05-10T20:30:53.873Z,35.80
2023-05-10T20:35:48.242Z,32.50
2023-05-10T20:38:15.161Z,31.10
2023-05-10T20:40:43.591Z,30.90
2023-05-10T20:43:10.684Z,26.80
2023-05-10T20:45:37.952Z,26.60
2023-05-10T20:48:05.235Z,30.00
2023-05-10T20:50:32.409Z,33.20
2023-05-10T20:53:00.966Z,34.00
2023-05-10T20:55:28.733Z,27.90
2023-05-10T20:57:55.817Z,23.60
2023-05-10T21:00:22.817Z,25.00
2023-05-10T21:02:49.932Z,19.80
2023-05-10T21:05:18.103Z,16.70
2023-05-10T21:07:47.386Z,16.10
2023-05-10T21:10:14.586Z,17.20
2023-05-10T21:12:42.161Z,18.10
2023-05-10T21:15:09.465Z,18.10
2023-05-10T21:17:37.060Z,17.90
2023-05-10T21:20:04.265Z,19.00
2023-05-10T21:22:32.091Z,19.40
2023-05-10T21:24:59.080Z,18.90
2023-05-10T21:27:26.068Z,19.10
2023-05-10T21:29:53.683Z,18.50
2023-05-10T21:32:21.017Z,18.60
2023-05-10T21:34:48.947Z,18.40
2023-05-10T21:37:17.503Z,16.90
2023-05-10T21:39:44.793Z,17.10
2023-05-10T21:42:11.923Z,13.50
2023-05-10T21:44:39.337Z,11.70
2023-05-10T21:47:06.316Z,12.40
2023-05-10T21:49:34.216Z,12.90
2023-05-10T21:52:01.735Z,16.50
2023-05-10T21:54:28.919Z,15.60
2023-05-10T21:56:55.956Z,21.60
2023-05-10T21:59:23.451Z,25.50
2023-05-10T22:01:50.662Z,27.70
2023-05-10T22:04:17.949Z,25.60
2023-05-10T22:06:45.198Z,22.10
2023-05-10T22:09:12.202Z,16.40
2023-05-10T22:11:39.186Z,14.90
2023-05-10T22:14:06.337Z,17.00
2023-05-10T22:16:33.519Z,14.50
2023-05-10T22:19:00.679Z,14.30
2023-05-10T22:21:27.896Z,14.70
2023-05-10T22:23:55.296Z,14.10
2023-05-10T22:26:22.738Z,14.30
2023-05-10T22:28:50.099Z,14.30
2023-05-10T22:31:17.424Z,12.30
2023-05-10T22:33:44.487Z,12.70
2023-05-10T22:36:11.755Z,13.10
2023-05-10T22:38:38.743Z,13.40
2023-05-10T22:41:06.004Z,13.30
2023-05-10T22:43:33.633Z,13.10
2023-05-10T22:46:00.888Z,10.10
2023-05-10T22:48:28.718Z,10.20
2023-05-10T22:50:55.915Z,10.80
2023-05-10T22:53:23.184Z,10.90
2023-05-10T22:55:50.809Z,12.90
2023-05-10T22:58:18.011Z,12.30
2023-05-10T23:00:44.991Z,10.40
2023-05-10T23:03:11.916Z,10.30
2023-05-10T23:05:38.991Z,9.50
2023-05-10T23:08:06.370Z,9.60
2023-05-10T23:10:33.616Z,10.00
2023-05-10T23:13:01.174Z,10.30
2023-05-10T23:15:28.118Z,8.90
2023-05-10T23:17:55.223Z,8.80
2023-05-10T23:20:22.271Z,8.20
2023-05-10T23:22:49.735Z,8.10
2023-05-10T23:25:17.170Z,7.30
2023-05-10T23:27:44.228Z,9.30
2023-05-10T23:30:11.587Z,12.40
2023-05-10T23:32:39.117Z,12.60
2023-05-10T23:35:07.028Z,11.60
2023-05-10T23:37:34.327Z,12.10
2023-05-10T23:40:02.028Z,11.10
2023-05-10T23:42:29.299Z,8.50
2023-05-10T23:44:56.531Z,7.00
2023-05-10T23:47:23.562Z,8.30
2023-05-10T23:49:50.680Z,8.50
2023-05-10T23:52:17.848Z,7.60
2023-05-10T23:54:45.951Z,6.90
2023-05-10T23:57:13.041Z,7.10
2023-05-10T23:59:40.014Z,6.80
